Time;durP1;ratioP1;P1;durP2;ratioP2;P2;SDS_P1;SDS_P2;PMS_P1;PMS_P2;Temp;Humidity;BMP_temperature;BMP_pressure;BME280_temperature;BME280_humidity;BME280_pressure;Samples;Min_cycle;Max_cycle;Signal;HPM_P1;HPM_P2
2022/08/02 00:03:12;;;;;;;14.05;4.17;;;;;;;21.20;74.90;100559.55;3662228;78;98810;-81
2022/08/02 00:08:13;;;;;;;6.45;4.15;;;;;;;21.17;74.95;100573.03;3663331;80;33191;-80
2022/08/02 00:13:14;;;;;;;6.78;3.92;;;;;;;21.12;75.19;100574.38;3656615;79;98615;-81
2022/08/02 00:18:15;;;;;;;6.83;3.70;;;;;;;21.10;75.34;100577.45;3666700;79;98674;-81
2022/08/02 00:23:16;;;;;;;6.42;3.95;;;;;;;21.07;75.46;100576.92;3657829;79;99154;-81
2022/08/02 00:28:17;;;;;;;6.12;3.80;;;;;;;21.03;75.31;100579.06;3663309;79;98787;-82
2022/08/02 00:33:18;;;;;;;8.78;3.98;;;;;;;20.97;75.25;100573.81;3651730;79;98730;-81
2022/08/02 00:38:19;;;;;;;8.18;4.25;;;;;;;20.93;75.22;100575.31;3674131;79;32202;-81
2022/08/02 00:43:20;;;;;;;7.03;3.85;;;;;;;20.88;75.31;100569.47;3666819;79;98660;-81
2022/08/02 00:48:21;;;;;;;6.65;3.70;;;;;;;20.84;75.47;100575.17;3664673;79;98595;-80
2022/08/02 00:53:22;;;;;;;6.87;4.08;;;;;;;20.81;75.62;100579.47;3664737;79;98869;-80
2022/08/02 00:58:23;;;;;;;8.58;4.30;;;;;;;20.74;75.38;100573.45;3662529;79;99262;-80
2022/08/02 01:03:25;;;;;;;7.70;3.67;;;;;;;20.75;75.82;100583.41;3651104;79;99170;-80
2022/08/02 01:08:26;;;;;;;6.73;3.60;;;;;;;20.71;75.80;100585.51;3675857;79;25898;-79
2022/08/02 01:13:27;;;;;;;7.40;3.90;;;;;;;20.68;76.16;100586.41;3651068;79;99052;-80
2022/08/02 01:18:35;;;;;;;7.72;3.92;;;;;;;20.66;76.21;100597.86;3657333;78;98597;-79
2022/08/02 01:23:54;;;;;;;6.40;4.05;;;;;;;20.62;76.49;100596.56;3627826;79;98818;-79
2022/08/02 01:29:06;;;;;;;6.35;3.90;;;;;;;20.59;76.70;100598.06;3603309;81;98781;-80
2022/08/02 01:34:33;;;;;;;6.45;4.10;;;;;;;20.54;77.00;100610.55;3596120;80;98833;-80
2022/08/02 01:39:37;;;;;;;8.05;4.10;;;;;;;20.51;77.33;100607.25;3588390;81;98869;-79
2022/08/02 01:44:41;;;;;;;7.53;4.20;;;;;;;20.45;77.06;100612.41;3596902;81;98082;-80
2022/08/02 01:49:45;;;;;;;8.20;4.35;;;;;;;20.40;77.48;100616.53;3592370;80;98532;-80
2022/08/02 01:55:04;;;;;;;8.28;4.37;;;;;;;20.39;77.78;100607.95;3596605;80;98892;-80
2022/08/02 02:00:08;;;;;;;7.28;4.20;;;;;;;20.38;77.92;100609.80;3599928;80;98974;-79
2022/08/02 02:05:16;;;;;;;6.30;3.85;;;;;;;20.37;78.35;100613.20;3610331;81;98812;-80
2022/08/02 02:10:23;;;;;;;8.18;4.47;;;;;;;20.36;78.39;100617.23;3584979;81;98812;-80
2022/08/02 02:15:25;;;;;;;6.87;4.72;;;;;;;20.33;78.40;100613.90;3609368;81;98880;-80
2022/08/02 02:20:27;;;;;;;9.80;5.45;;;;;;;20.33;78.58;100614.53;3591272;81;98574;-80
2022/08/02 02:25:28;;;;;;;9.65;5.67;;;;;;;20.31;78.75;100614.95;3668605;78;98591;-80
2022/08/02 02:30:32;;;;;;;11.57;5.90;;;;;;;20.30;78.63;100618.19;3680163;78;98622;-80
2022/08/02 02:35:36;;;;;;;10.93;5.08;;;;;;;20.27;78.75;100621.88;3693731;78;99345;-80
2022/08/02 02:40:39;;;;;;;8.58;4.53;;;;;;;20.20;78.89;100613.05;3665345;78;99004;-80
2022/08/02 02:45:42;;;;;;;6.95;4.33;;;;;;;20.16;78.94;100608.15;3692416;78;98821;-80
2022/08/02 02:50:44;;;;;;;8.13;4.50;;;;;;;20.12;79.07;100612.27;3681194;78;98507;-79
2022/08/02 02:55:47;;;;;;;9.28;4.55;;;;;;;20.07;79.33;100621.97;3686897;78;25918;-79
2022/08/02 03:06:08;;;;;;;7.47;4.53;;;;;;;20.02;79.64;100635.62;3700150;78;98632;-81
2022/08/02 03:11:11;;;;;;;7.55;4.72;;;;;;;20.00;79.75;100645.06;3681137;78;99091;-80
2022/08/02 03:16:13;;;;;;;8.38;4.47;;;;;;;19.85;79.87;100623.67;3693370;78;98813;-80
2022/08/02 03:21:14;;;;;;;7.53;4.95;;;;;;;19.97;80.20;100643.92;3689299;78;98703;-80
2022/08/02 03:26:15;;;;;;;7.67;4.80;;;;;;;19.96;80.31;100649.34;3686778;78;26423;-80
2022/08/02 03:31:17;;;;;;;8.57;4.87;;;;;;;19.93;80.25;100654.39;3682793;78;98705;-80
2022/08/02 03:36:20;;;;;;;8.80;4.67;;;;;;;19.89;80.30;100652.28;3689115;78;98677;-81
2022/08/02 03:41:22;;;;;;;9.48;4.72;;;;;;;19.85;80.41;100663.38;3695213;78;99145;-80
2022/08/02 03:46:24;;;;;;;7.67;4.40;;;;;;;19.79;80.41;100659.52;3694876;78;98842;-80
2022/08/02 03:51:26;;;;;;;6.80;4.33;;;;;;;19.76;80.54;100669.55;3680377;78;98801;-80
2022/08/02 03:56:28;;;;;;;8.43;4.57;;;;;;;19.73;80.65;100677.39;3700019;78;25819;-80
2022/08/02 04:01:30;;;;;;;9.00;4.80;;;;;;;19.70;80.91;100676.88;3696992;78;98667;-80
2022/08/02 04:06:31;;;;;;;8.90;5.40;;;;;;;19.71;80.95;100685.42;3709149;78;98662;-80
2022/08/02 04:11:32;;;;;;;8.43;4.93;;;;;;;19.72;81.01;100690.41;3695031;78;99151;-80
2022/08/02 04:16:51;;;;;;;8.80;4.93;;;;;;;19.71;81.07;100696.59;3712720;78;98730;-80
2022/08/02 04:21:54;;;;;;;7.90;5.40;;;;;;;19.71;81.16;100707.77;3704693;78;98775;-80
2022/08/02 04:26:57;;;;;;;8.28;5.05;;;;;;;19.72;81.30;100708.56;3687307;78;98850;-79
2022/08/02 04:31:59;;;;;;;9.25;5.05;;;;;;;19.76;81.34;100716.23;3665253;78;98489;-79
2022/08/02 04:37:01;;;;;;;6.93;4.63;;;;;;;19.80;81.42;100721.94;3696640;79;98690;-80
2022/08/02 04:42:02;;;;;;;7.87;4.97;;;;;;;19.85;81.38;100724.83;3689411;79;98860;-81
2022/08/02 04:47:04;;;;;;;7.72;4.60;;;;;;;19.86;81.42;100727.80;3691809;79;98779;-80
2022/08/02 04:52:05;;;;;;;6.97;4.50;;;;;;;19.89;81.27;100738.88;3680524;79;98847;-81
2022/08/02 05:02:09;;;;;;;7.70;4.90;;;;;;;19.94;81.18;100749.55;3598889;79;98660;-82
2022/08/02 05:07:10;;;;;;;9.27;4.00;;;;;;;19.98;80.98;100752.27;3678178;79;98701;-80
2022/08/02 05:12:11;;;;;;;7.87;4.17;;;;;;;19.99;80.82;100759.45;3616157;80;98903;-80
2022/08/02 05:17:13;;;;;;;7.67;3.70;;;;;;;20.01;80.70;100771.73;3627003;80;98737;-80
2022/08/02 05:22:13;;;;;;;6.47;3.63;;;;;;;20.04;80.47;100774.28;3671905;79;98905;-80
2022/08/02 05:27:14;;;;;;;7.00;3.83;;;;;;;20.08;80.34;100775.03;3677153;79;98829;-79
2022/08/02 05:32:15;;;;;;;6.97;3.27;;;;;;;20.10;80.27;100780.99;3673119;79;98646;-81
2022/08/02 05:37:17;;;;;;;8.33;4.20;;;;;;;20.11;80.01;100781.93;3654599;79;97853;-80
2022/08/02 05:42:18;;;;;;;9.67;3.40;;;;;;;20.17;79.91;100792.00;3670964;79;98631;-80
2022/08/02 05:47:19;;;;;;;9.87;3.20;;;;;;;20.32;80.50;100798.86;3678386;79;98844;-81
2022/08/02 05:52:25;;;;;;;8.07;3.53;;;;;;;20.53;80.02;100799.14;3678500;79;99123;-80
2022/08/02 05:57:52;;;;;;;6.45;2.67;;;;;;;21.05;80.06;100806.08;3692411;79;98830;-80
2022/08/02 06:03:19;;;;;;;8.73;2.83;;;;;;;21.69;79.38;100805.34;3685042;78;98876;-81
2022/08/02 06:08:23;;;;;;;4.78;2.80;;;;;;;22.41;77.31;100805.00;3688279;79;25936;-80
2022/08/02 06:13:25;;;;;;;5.85;2.35;;;;;;;23.17;75.25;100803.70;3673631;79;98308;-81
2022/08/02 06:18:28;;;;;;;9.20;2.55;;;;;;;23.84;73.15;100802.72;3685088;79;98650;-79
2022/08/02 06:23:31;;;;;;;9.78;2.30;;;;;;;24.45;70.93;100810.60;3633037;80;98942;-81
2022/08/02 06:28:37;;;;;;;11.15;2.35;;;;;;;24.93;68.81;100816.11;3597288;80;98877;-82
2022/08/02 06:33:38;;;;;;;6.90;2.87;;;;;;;25.35;66.58;100815.14;3596658;80;99070;-81
2022/08/02 06:38:43;;;;;;;6.83;2.50;;;;;;;25.82;64.36;100821.72;3601560;80;25929;-81
2022/08/02 06:44:00;;;;;;;8.28;3.00;;;;;;;26.05;63.32;100813.37;3597417;80;98972;-81
2022/08/02 06:49:03;;;;;;;6.17;1.90;;;;;;;26.42;62.63;100821.14;3606434;80;98377;-80
2022/08/02 06:54:04;;;;;;;7.08;1.70;;;;;;;26.77;60.92;100827.30;3604436;80;99347;-81
2022/08/02 06:59:05;;;;;;;6.10;1.75;;;;;;;27.05;59.18;100833.56;3608805;80;98761;-82
2022/08/02 07:04:06;;;;;;;5.37;2.15;;;;;;;26.87;56.69;100795.55;3601169;80;98796;-83
2022/08/02 07:09:07;;;;;;;5.95;2.08;;;;;;;26.87;56.69;100795.55;3682857;79;98816;-81
2022/08/02 07:14:08;;;;;;;7.35;2.00;;;;;;;26.75;56.56;100823.39;3672330;79;98809;-82
2022/08/02 07:19:09;;;;;;;6.67;1.90;;;;;;;26.52;55.84;100827.67;3660826;79;98889;-85
2022/08/02 07:24:10;;;;;;;5.05;2.40;;;;;;;26.42;55.67;100827.55;3670046;79;98677;-83
2022/08/02 07:29:11;;;;;;;7.03;2.40;;;;;;;26.29;55.64;100823.36;3667894;79;98763;-84
2022/08/02 07:34:12;;;;;;;6.65;1.75;;;;;;;26.10;55.32;100821.21;3657730;79;98856;-81
2022/08/02 07:39:13;;;;;;;6.65;1.87;;;;;;;25.86;55.12;100823.11;3657779;80;98822;-82
2022/08/02 07:44:14;;;;;;;6.57;1.90;;;;;;;25.73;54.94;100820.30;3658230;79;98303;-82
2022/08/02 07:49:17;;;;;;;9.15;1.90;;;;;;;25.39;55.57;100810.11;3668568;79;98660;-83
2022/08/02 07:54:19;;;;;;;5.83;1.70;;;;;;;25.40;55.46;100809.50;3667346;79;98720;-84
2022/08/02 07:59:20;;;;;;;4.67;1.52;;;;;;;25.26;55.42;100809.48;3665673;79;98722;-85
2022/08/02 08:04:21;;;;;;;7.30;2.08;;;;;;;25.19;55.33;100816.81;3654054;79;98850;-82
2022/08/02 08:09:22;;;;;;;4.25;1.67;;;;;;;25.17;55.59;100816.48;3664890;79;98836;-82
2022/08/02 08:14:23;;;;;;;5.97;1.95;;;;;;;25.20;55.80;100815.56;3644322;79;98947;-83
2022/08/02 08:19:24;;;;;;;6.10;1.72;;;;;;;25.36;55.94;100811.68;3657207;79;98603;-83
2022/08/02 08:24:27;;;;;;;7.05;2.37;;;;;;;25.77;55.75;100806.84;3644525;79;98946;-86
2022/08/02 08:29:29;;;;;;;4.83;1.50;;;;;;;26.49;55.83;100811.67;3686244;79;98808;-84
2022/08/02 08:34:30;;;;;;;5.37;1.60;;;;;;;27.31;54.92;100803.59;3676126;79;98798;-85
2022/08/02 08:39:31;;;;;;;6.85;2.15;;;;;;;28.00;53.43;100796.23;3687156;79;98743;-84
2022/08/02 08:44:34;;;;;;;7.75;1.87;;;;;;;28.98;52.29;100809.73;3682767;78;98600;-84
2022/08/02 08:49:44;;;;;;;4.25;1.50;;;;;;;29.90;50.48;100805.70;3679748;79;99266;-83
2022/08/02 08:54:48;;;;;;;5.55;1.57;;;;;;;30.80;49.38;100808.22;3673357;78;98552;-83
2022/08/02 08:59:49;;;;;;;5.83;1.50;;;;;;;31.59;47.44;100811.09;3680972;79;98732;-83
2022/08/02 09:04:50;;;;;;;6.00;1.80;;;;;;;32.43;46.49;100807.14;3678053;79;98835;-85
2022/08/02 09:09:51;;;;;;;6.62;1.70;;;;;;;33.30;44.91;100805.45;3672338;79;98878;-82
2022/08/02 09:14:52;;;;;;;6.22;1.62;;;;;;;33.99;43.14;100809.80;3679399;79;98794;-83
2022/08/02 09:20:08;;;;;;;4.13;1.93;;;;;;;34.27;41.46;100814.68;3679353;79;98506;-81
2022/08/02 09:25:14;;;;;;;4.08;1.30;;;;;;;34.77;40.42;100810.74;3678341;78;98717;-83
2022/08/02 09:30:16;;;;;;;7.97;2.05;;;;;;;35.03;40.33;100810.98;3687011;78;98928;-83
2022/08/02 09:35:41;;;;;;;3.27;1.32;;;;;;;35.68;38.82;100815.12;3701399;78;98790;-82
2022/08/02 09:40:43;;;;;;;5.78;1.92;;;;;;;35.91;38.27;100815.63;3688699;78;98785;-81
2022/08/02 09:45:44;;;;;;;3.45;1.27;;;;;;;36.18;36.06;100813.77;3700315;78;98879;-83
2022/08/02 09:50:45;;;;;;;5.53;1.40;;;;;;;36.29;36.74;100812.16;3700808;78;98972;-82
2022/08/02 09:55:55;;;;;;;4.90;1.30;;;;;;;36.49;35.53;100807.92;3692908;80;26431;-82
2022/08/02 10:01:00;;;;;;;6.45;1.60;;;;;;;36.81;35.63;100794.33;3680506;78;98716;-87
2022/08/02 10:06:03;;;;;;;4.12;1.42;;;;;;;36.99;35.11;100792.05;3688206;79;98884;-88
2022/08/02 10:11:04;;;;;;;7.30;1.60;;;;;;;37.31;34.46;100781.20;3673674;78;98844;-88
2022/08/02 10:16:05;;;;;;;5.33;1.52;;;;;;;37.39;34.06;100779.22;3683098;78;98761;-82
2022/08/02 10:21:34;;;;;;;5.15;1.80;;;;;;;37.57;32.83;100785.50;3686370;78;98859;-86
2022/08/02 10:26:39;;;;;;;5.80;1.60;;;;;;;37.43;32.79;100780.42;3666234;78;26048;-82
2022/08/02 10:31:53;;;;;;;6.78;1.82;;;;;;;36.49;31.93;100766.33;3617088;80;98506;-83
2022/08/02 10:36:55;;;;;;;6.87;1.75;;;;;;;36.25;32.98;100771.59;3616887;80;98646;-83
2022/08/02 10:41:56;;;;;;;5.05;1.57;;;;;;;36.73;32.08;100760.46;3607487;80;98830;-82
2022/08/02 10:47:19;;;;;;;9.38;2.17;;;;;;;36.17;32.01;100763.48;3599230;80;98810;-80
2022/08/02 10:52:25;;;;;;;6.45;1.77;;;;;;;36.70;33.95;100771.59;3600374;80;98888;-84
2022/08/02 10:57:33;;;;;;;3.92;1.20;;;;;;;37.55;34.00;100758.01;3601233;80;98735;-79
2022/08/02 11:02:39;;;;;;;5.37;1.57;;;;;;;37.94;33.48;100761.52;3599884;80;98408;-81
2022/08/02 11:07:47;;;;;;;5.55;1.50;;;;;;;38.04;32.75;100744.58;3603529;80;98512;-81
2022/08/02 11:13:08;;;;;;;6.60;1.92;;;;;;;38.12;30.78;100739.01;3604614;80;98877;-81
2022/08/02 11:18:09;;;;;;;6.33;1.98;;;;;;;37.78;31.40;100746.89;3601549;80;98701;-81
2022/08/02 11:23:38;;;;;;;10.25;2.15;;;;;;;37.89;30.76;100729.38;3609584;80;98798;-82
2022/08/02 11:28:40;;;;;;;7.53;1.90;;;;;;;38.19;31.80;100728.23;3651407;79;98994;-82
2022/08/02 11:33:42;;;;;;;6.60;1.90;;;;;;;37.86;32.51;100730.48;3678110;79;98742;-83
2022/08/02 11:38:44;;;;;;;4.22;1.50;;;;;;;37.76;31.97;100743.02;3679188;79;25926;-80
2022/08/02 11:43:45;;;;;;;5.72;2.02;;;;;;;37.43;31.58;100737.34;3659403;79;98517;-81
2022/08/02 11:48:46;;;;;;;5.60;1.85;;;;;;;36.87;31.87;100740.47;3655834;79;98496;-81
2022/08/02 11:53:56;;;;;;;6.40;1.72;;;;;;;36.64;32.70;100740.80;3650433;79;98761;-82
2022/08/02 11:59:10;;;;;;;4.60;1.50;;;;;;;36.42;33.07;100740.53;3683005;79;98961;-81
2022/08/02 12:04:18;;;;;;;6.78;1.70;;;;;;;36.60;33.76;100728.84;3677815;79;98767;-82
2022/08/02 12:09:19;;;;;;;4.37;1.55;;;;;;;36.77;31.40;100726.48;3667450;79;98751;-80
2022/08/02 12:14:21;;;;;;;5.85;1.77;;;;;;;35.78;31.34;100727.52;3662604;79;98368;-79
2022/08/02 12:19:28;;;;;;;5.78;1.52;;;;;;;35.56;31.15;100732.13;3682257;79;98585;-80
2022/08/02 12:24:29;;;;;;;9.78;2.25;;;;;;;35.70;32.96;100723.72;3666491;79;98487;-82
2022/08/02 12:29:37;;;;;;;4.40;1.65;;;;;;;36.21;33.15;100722.41;3677859;78;98791;-84
2022/08/02 12:34:38;;;;;;;4.40;1.57;;;;;;;36.10;30.91;100728.95;3693842;78;98724;-85
2022/08/02 12:39:44;;;;;;;6.70;1.70;;;;;;;35.53;29.94;100736.73;3694079;78;98772;-82
2022/08/02 12:44:58;;;;;;;6.72;1.35;;;;;;;34.85;30.25;100733.81;3693038;78;98491;-82
2022/08/02 12:50:19;;;;;;;4.90;1.57;;;;;;;34.92;30.52;100725.30;3692864;78;99314;-82
2022/08/02 12:55:28;;;;;;;5.20;1.60;;;;;;;34.80;30.18;100721.78;3663270;78;98568;-81
2022/08/02 13:00:37;;;;;;;4.90;1.50;;;;;;;34.35;29.95;100720.67;3681899;78;98593;-86
2022/08/02 13:05:38;;;;;;;7.45;2.00;;;;;;;33.85;30.53;100721.73;3695879;78;98624;-82
2022/08/02 13:10:40;;;;;;;4.97;1.82;;;;;;;33.82;31.15;100712.80;3696694;78;98701;-82
2022/08/02 13:15:41;;;;;;;10.30;2.52;;;;;;;34.22;33.18;100710.49;3690025;78;98864;-81
2022/08/02 13:20:42;;;;;;;10.68;1.62;;;;;;;34.59;31.99;100710.67;3680876;78;99100;-82
2022/08/02 13:25:44;;;;;;;4.33;1.90;;;;;;;34.79;32.01;100700.86;3678299;78;98540;-84
2022/08/02 13:30:46;;;;;;;7.35;2.60;;;;;;;35.06;30.90;100695.45;3587130;79;98860;-82
2022/08/02 13:35:48;;;;;;;6.65;1.95;;;;;;;34.55;30.36;100689.42;3582934;81;98824;-82
2022/08/02 13:41:08;;;;;;;12.68;2.33;;;;;;;34.10;30.27;100695.44;3581961;81;98846;-84
2022/08/02 13:46:09;;;;;;;11.55;2.98;;;;;;;34.02;32.25;100685.24;3606827;81;98901;-82
2022/08/02 13:51:14;;;;;;;4.72;1.67;;;;;;;33.81;32.99;100679.84;3597883;81;98966;-82
2022/08/02 13:56:13;;;;;;;3.22;1.52;;;;;;;33.83;33.15;100680.73;3594104;81;26044;-83
2022/08/02 14:01:14;;;;;;;4.95;1.60;;;;;;;33.91;33.37;100681.05;3589066;81;98879;-82
2022/08/02 14:06:15;;;;;;;7.87;1.95;;;;;;;34.01;34.38;100669.39;3584491;81;98677;-83
2022/08/02 14:11:16;;;;;;;5.70;1.65;;;;;;;34.19;33.15;100675.86;3597793;81;98931;-82
2022/08/02 14:16:17;;;;;;;6.03;1.90;;;;;;;34.12;32.17;100669.95;3573319;81;98888;-84
2022/08/02 14:21:18;;;;;;;6.37;1.90;;;;;;;33.66;31.53;100667.98;3595782;81;98789;-83
2022/08/02 14:26:19;;;;;;;6.00;1.60;;;;;;;32.80;30.99;100660.15;3597110;81;25874;-81
2022/08/02 14:31:20;;;;;;;5.70;1.50;;;;;;;32.45;31.77;100647.81;3682484;78;98625;-87
2022/08/02 14:36:21;;;;;;;2.83;1.42;;;;;;;32.25;32.45;100658.08;3694738;78;98550;-82
2022/08/02 14:41:22;;;;;;;3.77;1.45;;;;;;;32.11;33.52;100651.36;3696180;78;98767;-83
2022/08/02 14:46:23;;;;;;;3.80;1.60;;;;;;;32.09;34.06;100644.64;3704104;78;98836;-82
2022/08/02 14:51:24;;;;;;;3.60;1.27;;;;;;;32.25;35.69;100645.26;3550091;81;98782;-81
2022/08/02 14:56:26;;;;;;;2.00;1.20;;;;;;;32.28;35.48;100635.05;3570065;81;26589;-82
2022/08/02 15:01:27;;;;;;;2.37;1.30;;;;;;;32.30;35.36;100637.37;3617897;80;98658;-82
2022/08/02 15:06:31;;;;;;;3.85;1.52;;;;;;;32.27;37.03;100636.34;3569674;81;98646;-88
2022/08/02 15:11:32;;;;;;;9.38;2.20;;;;;;;32.15;34.54;100636.86;3559436;81;98756;-83
2022/08/02 15:16:37;;;;;;;6.30;1.52;;;;;;;31.86;34.62;100631.06;3695570;78;98837;-82
2022/08/02 15:21:36;;;;;;;3.52;1.10;;;;;;;31.60;33.56;100635.44;3688091;78;98754;-82
2022/08/02 15:26:37;;;;;;;3.15;1.20;;;;;;;31.41;35.28;100627.27;3699121;78;33322;-84
2022/08/02 15:31:39;;;;;;;4.83;1.72;;;;;;;31.19;33.71;100622.93;3682731;78;98723;-89
2022/08/02 15:36:40;;;;;;;5.25;2.17;;;;;;;30.76;33.50;100625.14;3699347;78;98695;-82
2022/08/02 15:41:41;;;;;;;3.00;1.40;;;;;;;30.38;33.85;100622.08;3687919;78;98723;-82
2022/08/02 15:46:42;;;;;;;2.27;1.60;;;;;;;30.29;34.57;100625.15;3698760;78;98880;-86
2022/08/02 15:51:43;;;;;;;4.90;1.67;;;;;;;30.12;34.38;100613.67;3683437;78;98729;-84
2022/08/02 15:56:44;;;;;;;2.55;1.50;;;;;;;29.78;34.41;100608.23;3697270;78;33345;-82
2022/08/02 16:01:48;;;;;;;3.22;1.40;;;;;;;29.55;34.89;100607.92;3688401;78;98538;-82
2022/08/02 16:06:49;;;;;;;5.07;1.50;;;;;;;29.51;35.23;100603.88;3695554;78;99370;-83
2022/08/02 16:11:50;;;;;;;3.02;1.65;;;;;;;29.30;35.42;100598.77;3689688;78;99283;-82
2022/08/02 16:16:51;;;;;;;5.37;1.50;;;;;;;29.19;35.95;100594.41;3695735;78;98885;-83
2022/08/02 16:21:55;;;;;;;2.90;1.40;;;;;;;29.00;35.91;100602.48;3687922;78;98838;-84
2022/08/02 16:26:56;;;;;;;4.40;1.72;;;;;;;28.78;36.17;100601.41;3696418;78;98826;-82
2022/08/02 16:31:57;;;;;;;6.55;2.20;;;;;;;28.51;36.63;100603.27;3690702;78;98384;-82
2022/08/02 16:36:58;;;;;;;4.10;1.45;;;;;;;28.28;36.73;100601.39;3693418;78;98695;-81
2022/08/02 16:41:59;;;;;;;2.55;1.32;;;;;;;28.09;37.04;100606.53;3692022;78;98833;-82
2022/08/02 16:47:00;;;;;;;4.80;1.90;;;;;;;27.96;37.56;100607.48;3695305;78;98772;-81
2022/08/02 16:52:01;;;;;;;3.10;1.67;;;;;;;27.85;38.38;100607.96;3691173;78;98820;-81
2022/08/02 16:57:03;;;;;;;3.35;1.80;;;;;;;27.73;38.17;100610.45;3697163;78;98856;-81
2022/08/02 17:02:05;;;;;;;5.22;1.90;;;;;;;27.58;38.39;100616.09;3689140;78;98687;-82
2022/08/02 17:07:06;;;;;;;6.00;1.85;;;;;;;27.44;38.61;100609.03;3698581;78;98660;-82
2022/08/02 17:12:08;;;;;;;3.83;1.62;;;;;;;27.43;38.85;100601.83;3688228;78;98800;-82
2022/08/02 17:17:09;;;;;;;3.22;1.70;;;;;;;27.32;38.53;100603.05;3697050;78;98857;-82
2022/08/02 17:22:10;;;;;;;3.95;1.80;;;;;;;27.22;39.15;100609.44;3692126;78;98785;-81
2022/08/02 17:27:11;;;;;;;5.33;1.87;;;;;;;27.13;39.45;100607.31;3695975;78;98807;-81
2022/08/02 17:32:13;;;;;;;6.67;1.87;;;;;;;26.95;39.16;100613.91;3649922;79;98564;-81
2022/08/02 17:37:15;;;;;;;7.08;1.90;;;;;;;26.74;39.40;100611.41;3646953;79;98601;-83
2022/08/02 17:42:16;;;;;;;6.33;1.90;;;;;;;26.57;39.73;100611.08;3646704;79;98931;-82
2022/08/02 17:47:17;;;;;;;5.37;1.80;;;;;;;26.44;40.11;100606.91;3649702;79;98758;-82
2022/08/02 17:52:22;;;;;;;4.03;1.67;;;;;;;26.26;40.16;100609.86;3621160;79;98768;-83
2022/08/02 17:57:23;;;;;;;3.80;1.90;;;;;;;26.10;40.60;100611.03;3642575;78;98774;-82
2022/08/02 18:02:24;;;;;;;8.25;2.27;;;;;;;26.01;41.25;100606.86;3642488;79;98910;-83
2022/08/02 18:07:27;;;;;;;5.55;2.05;;;;;;;25.92;41.30;100608.92;3609247;79;98712;-82
2022/08/02 18:12:28;;;;;;;7.08;2.20;;;;;;;25.79;41.80;100620.41;3639643;79;98695;-82
2022/08/02 18:17:29;;;;;;;3.52;1.65;;;;;;;25.68;42.50;100624.98;3647839;79;98789;-83
2022/08/02 18:22:30;;;;;;;3.42;1.77;;;;;;;25.60;43.78;100629.41;3641320;79;98960;-82
2022/08/02 18:27:31;;;;;;;4.87;1.62;;;;;;;25.50;44.43;100629.28;3645004;79;98878;-82
2022/08/02 18:32:32;;;;;;;4.83;2.08;;;;;;;25.25;45.21;100614.14;3667906;79;98561;-82
2022/08/02 18:37:33;;;;;;;3.30;2.08;;;;;;;25.25;46.32;100642.31;3680000;79;98679;-82
2022/08/02 18:42:34;;;;;;;4.70;2.45;;;;;;;25.11;46.74;100640.89;3660912;79;98574;-83
2022/08/02 18:47:35;;;;;;;7.50;2.70;;;;;;;24.96;47.62;100639.95;3661276;79;98828;-85
2022/08/02 18:52:36;;;;;;;5.70;2.58;;;;;;;24.80;48.70;100648.70;3657369;79;99463;-84
2022/08/02 18:57:38;;;;;;;9.35;2.47;;;;;;;24.65;49.34;100646.98;3627119;79;98842;-84
2022/08/02 19:02:39;;;;;;;3.52;2.12;;;;;;;24.51;50.05;100658.19;3665206;79;98536;-83
2022/08/02 19:07:39;;;;;;;5.20;2.25;;;;;;;24.35;50.75;100655.66;3675860;79;98448;-83
2022/08/02 19:12:41;;;;;;;4.12;2.50;;;;;;;24.21;51.41;100669.53;3624723;79;98583;-84
2022/08/02 19:17:42;;;;;;;8.45;3.52;;;;;;;24.08;52.31;100664.65;3676443;79;99157;-83
2022/08/02 19:22:43;;;;;;;8.33;3.45;;;;;;;23.96;53.01;100666.31;3668247;79;98816;-83
2022/08/02 19:27:44;;;;;;;7.67;3.47;;;;;;;23.83;53.40;100671.23;3663934;79;98906;-82
2022/08/02 19:32:46;;;;;;;9.13;3.20;;;;;;;23.70;53.76;100666.94;3649372;79;98474;-83
2022/08/02 19:37:47;;;;;;;11.50;3.75;;;;;;;23.56;54.72;100668.27;3666654;79;31652;-83
2022/08/02 19:42:50;;;;;;;8.40;4.03;;;;;;;23.44;55.22;100666.94;3663731;79;98843;-81
2022/08/02 19:47:51;;;;;;;11.73;3.92;;;;;;;23.29;55.56;100661.08;3617528;80;98748;-84
2022/08/02 19:52:52;;;;;;;11.78;3.70;;;;;;;23.20;56.51;100667.22;3610125;80;99020;-84
2022/08/02 19:57:53;;;;;;;6.92;3.40;;;;;;;23.09;57.01;100663.38;3612986;80;98983;-83
2022/08/02 20:02:54;;;;;;;9.08;3.62;;;;;;;23.00;57.41;100666.11;3619917;80;98907;-84
2022/08/02 20:07:55;;;;;;;11.05;3.87;;;;;;;22.90;58.02;100662.28;3626328;80;31601;-84
2022/08/02 20:12:57;;;;;;;7.78;3.47;;;;;;;22.79;58.52;100661.27;3607674;80;98851;-84
2022/08/02 20:17:58;;;;;;;8.70;4.00;;;;;;;22.68;58.78;100659.42;3625499;80;98826;-84
2022/08/02 20:23:16;;;;;;;10.08;3.80;;;;;;;22.59;59.36;100665.58;3626305;80;98817;-85
2022/08/02 20:28:17;;;;;;;7.15;3.70;;;;;;;22.50;59.83;100666.91;3622176;80;99049;-84
2022/08/02 20:33:18;;;;;;;9.08;4.70;;;;;;;22.39;60.28;100663.01;3604649;80;98871;-84
2022/08/02 20:38:20;;;;;;;9.20;3.22;;;;;;;22.32;60.71;100668.06;3614943;80;31717;-83
2022/08/02 20:43:21;;;;;;;8.05;3.70;;;;;;;22.24;60.88;100666.11;3629271;80;98643;-82
2022/08/02 20:48:22;;;;;;;8.03;3.85;;;;;;;22.13;61.26;100668.47;3699217;78;98675;-82
2022/08/02 20:53:24;;;;;;;7.75;3.67;;;;;;;22.06;61.50;100659.53;3685908;78;98727;-82
2022/08/02 20:58:25;;;;;;;6.65;3.27;;;;;;;21.98;61.88;100656.77;3710239;78;98844;-83
2022/08/02 21:03:27;;;;;;;13.25;4.37;;;;;;;21.90;62.39;100660.41;3682482;78;98823;-83
2022/08/02 21:08:27;;;;;;;7.28;3.62;;;;;;;21.83;62.72;100663.44;3712702;78;31635;-83
2022/08/02 21:13:29;;;;;;;6.08;3.55;;;;;;;21.75;63.01;100662.71;3690931;78;98455;-83
2022/08/02 21:18:30;;;;;;;8.85;3.62;;;;;;;21.68;63.39;100670.70;3699733;78;98691;-84
2022/08/02 21:23:32;;;;;;;6.53;3.62;;;;;;;21.60;63.50;100668.53;3696815;78;98871;-83
2022/08/02 21:28:33;;;;;;;6.25;3.92;;;;;;;21.54;63.92;100671.12;3698027;78;98801;-83
2022/08/02 21:33:34;;;;;;;8.43;4.25;;;;;;;21.48;64.21;100669.30;3656665;78;98891;-83
2022/08/02 21:38:35;;;;;;;6.85;3.80;;;;;;;21.42;64.60;100675.28;3663741;79;31245;-83
2022/08/02 21:43:36;;;;;;;7.95;4.62;;;;;;;21.37;64.87;100669.59;3648784;78;99041;-83
2022/08/02 21:48:37;;;;;;;7.25;4.55;;;;;;;21.31;64.97;100676.97;3661741;79;98640;-83
2022/08/02 21:53:38;;;;;;;9.25;4.92;;;;;;;21.25;65.32;100680.15;3642371;79;99111;-82
2022/08/02 21:58:39;;;;;;;9.25;5.17;;;;;;;21.20;65.58;100683.49;3655649;79;97974;-82
2022/08/02 22:03:42;;;;;;;10.75;4.85;;;;;;;21.16;65.86;100682.03;3633256;79;98734;-82
2022/08/02 22:08:43;;;;;;;9.83;5.90;;;;;;;21.09;65.91;100683.64;3640525;79;31222;-82
2022/08/02 22:13:44;;;;;;;10.75;5.87;;;;;;;21.01;66.00;100686.44;3640859;78;98398;-82
2022/08/02 22:18:45;;;;;;;9.43;4.75;;;;;;;20.94;66.37;100679.64;3645518;79;98877;-83
2022/08/02 22:23:46;;;;;;;9.10;4.62;;;;;;;20.90;66.57;100686.74;3639411;79;98810;-83
2022/08/02 22:28:48;;;;;;;8.15;4.95;;;;;;;20.83;66.85;100687.52;3645256;79;98775;-83
2022/08/02 22:34:04;;;;;;;11.22;4.87;;;;;;;20.79;67.11;100690.41;3644201;79;98878;-83
2022/08/02 22:39:10;;;;;;;9.80;4.67;;;;;;;20.74;67.26;100699.92;3645666;79;99392;-83
2022/08/02 22:44:11;;;;;;;10.47;5.63;;;;;;;20.68;67.52;100708.08;3629862;79;98416;-83
2022/08/02 22:49:12;;;;;;;10.38;4.85;;;;;;;20.62;67.59;100705.64;3647116;79;98866;-83
2022/08/02 22:54:13;;;;;;;11.00;4.92;;;;;;;20.55;67.79;100708.59;3645840;79;98773;-82
2022/08/02 22:59:14;;;;;;;9.83;4.87;;;;;;;20.46;67.94;100707.05;3634287;81;98910;-83
2022/08/02 23:04:15;;;;;;;10.05;4.60;;;;;;;20.41;67.94;100708.96;3623223;79;98747;-83
2022/08/02 23:09:16;;;;;;;8.83;4.55;;;;;;;20.34;68.04;100710.55;3651100;79;99037;-83
2022/08/02 23:14:17;;;;;;;8.45;4.92;;;;;;;20.28;68.32;100719.25;3639950;79;98575;-83
2022/08/02 23:24:37;;;;;;;7.92;4.10;;;;;;;20.19;68.84;100714.89;3629138;79;99097;-83
2022/08/02 23:29:38;;;;;;;7.28;4.20;;;;;;;20.16;69.10;100713.58;3625941;79;98914;-83
2022/08/02 23:34:40;;;;;;;9.23;4.30;;;;;;;20.14;69.12;100710.41;3676768;78;98913;-83
2022/08/02 23:39:41;;;;;;;8.08;4.33;;;;;;;20.08;69.19;100703.77;3693604;78;99015;-83
2022/08/02 23:44:42;;;;;;;6.97;4.33;;;;;;;20.00;69.37;100703.11;3679808;78;98399;-83